SEA weather

Seattle Tacoma International Airport
Seattle, Washington, United States

Public forecast

Using degrees Fahrenheit for public forecast. Weather courtesy of forecast.io.

METAR (pilot weather report)

Retrieved 2017/06/27 01:53 UTC (1 hour ago):

KSEA 270153Z 19006KT 10SM FEW150 SCT250 21/12 A2995 RMK AO2 SLP146 ACC OHD T02060122

TAF (pilot weather forecast)

Forecast is more than 12 hours old.

Retrieved 2017/06/26 00:22 UTC (1 day ago):

TAF KSEA 262320Z 2700/2806 23010KT P6SM FEW035 BKN130 BKN200 FM270600 19008KT P6SM SCT130 BKN200 FM270900 19006KT P6SM OVC018 FM272000 24007KT P6SM FEW035 SCT200 FM280000 31006KT P6SM SCT200